createdAt,value
2023-01-31T00:00:08.077Z,8.93
2023-01-31T00:02:35.487Z,10.40
2023-01-31T00:05:02.959Z,10.10
2023-01-31T00:07:30.322Z,10.60
2023-01-31T00:09:57.528Z,10.43
2023-01-31T00:12:24.664Z,11.07
2023-01-31T00:14:51.715Z,10.70
2023-01-31T00:17:18.863Z,10.97
2023-01-31T00:19:46.113Z,12.03
2023-01-31T00:22:13.298Z,12.17
2023-01-31T00:24:40.704Z,13.60
2023-01-31T00:27:08.618Z,10.93
2023-01-31T00:29:36.050Z,13.23
2023-01-31T00:32:04.388Z,13.00
2023-01-31T00:34:31.755Z,13.93
2023-01-31T00:36:58.975Z,13.83
2023-01-31T00:39:26.357Z,13.13
2023-01-31T00:41:53.710Z,13.17
2023-01-31T00:44:20.926Z,12.67
2023-01-31T00:46:48.453Z,12.20
2023-01-31T00:49:15.615Z,12.60
2023-01-31T00:51:45.027Z,13.47
2023-01-31T00:54:12.538Z,11.97
2023-01-31T00:56:39.691Z,12.63
2023-01-31T00:59:08.733Z,12.80
2023-01-31T01:01:37.048Z,12.70
2023-01-31T01:04:06.241Z,11.87
2023-01-31T01:06:38.675Z,12.77
2023-01-31T01:09:06.058Z,13.13
2023-01-31T01:11:34.804Z,13.53
2023-01-31T01:14:03.025Z,12.60
2023-01-31T01:16:36.980Z,12.87
2023-01-31T01:19:16.557Z,12.57
2023-01-31T01:21:44.623Z,12.57
2023-01-31T01:24:19.667Z,12.27
2023-01-31T01:26:47.805Z,12.00
2023-01-31T01:29:15.170Z,12.83
2023-01-31T01:31:43.959Z,11.43
2023-01-31T01:34:16.443Z,11.57
2023-01-31T01:36:46.873Z,12.60
2023-01-31T01:39:16.757Z,12.17
2023-01-31T01:41:45.480Z,11.63
2023-01-31T01:45:00.852Z,11.57
2023-01-31T01:47:31.618Z,10.87
2023-01-31T01:50:33.754Z,12.27
2023-01-31T01:53:06.931Z,11.97
2023-01-31T01:55:49.762Z,11.43
2023-01-31T01:58:27.394Z,11.43
2023-01-31T02:00:55.567Z,12.27
2023-01-31T02:03:23.348Z,11.70
2023-01-31T02:05:55.408Z,11.50
2023-01-31T02:08:25.500Z,11.97
2023-01-31T02:11:01.873Z,12.93
2023-01-31T02:13:30.650Z,12.00
2023-01-31T02:15:58.587Z,12.27
2023-01-31T02:18:27.919Z,11.83
2023-01-31T02:21:25.357Z,11.17
2023-01-31T02:24:22.221Z,11.20
2023-01-31T02:27:13.149Z,10.80
2023-01-31T02:30:12.538Z,10.50
2023-01-31T02:32:47.034Z,9.40
2023-01-31T02:35:51.806Z,10.40
2023-01-31T02:38:27.926Z,11.03
2023-01-31T02:41:22.734Z,9.53
2023-01-31T02:44:13.835Z,9.63
2023-01-31T02:47:03.501Z,9.33
2023-01-31T02:49:38.055Z,9.57
2023-01-31T02:52:23.232Z,10.23
2023-01-31T02:55:24.274Z,10.53
2023-01-31T02:57:53.893Z,8.50
2023-01-31T03:00:22.371Z,7.27
2023-01-31T03:02:49.618Z,6.70
2023-01-31T03:05:19.073Z,8.53
2023-01-31T03:08:00.408Z,8.50
2023-01-31T03:10:49.683Z,8.17
2023-01-31T03:13:39.983Z,6.90
2023-01-31T03:16:41.470Z,7.20
2023-01-31T03:19:21.277Z,6.30
2023-01-31T03:21:57.568Z,5.80
2023-01-31T03:24:27.206Z,5.73
2023-01-31T03:26:57.619Z,5.93
2023-01-31T03:29:27.189Z,5.60
2023-01-31T03:32:03.470Z,6.20
2023-01-31T03:34:31.747Z,6.80
2023-01-31T03:37:12.027Z,5.73
2023-01-31T03:39:50.758Z,5.93
2023-01-31T03:42:25.164Z,5.47
2023-01-31T03:45:09.751Z,5.60
2023-01-31T03:47:46.619Z,5.63
2023-01-31T03:50:23.315Z,5.77
2023-01-31T03:53:02.647Z,5.60
2023-01-31T03:55:53.713Z,4.70
2023-01-31T03:58:26.448Z,4.67
2023-01-31T04:00:56.841Z,4.80
2023-01-31T04:03:28.527Z,4.93
2023-01-31T04:05:56.514Z,4.57
2023-01-31T04:08:24.931Z,4.20
2023-01-31T04:11:00.695Z,4.37
2023-01-31T04:13:28.069Z,4.17
2023-01-31T04:15:55.265Z,4.67
2023-01-31T04:18:22.467Z,4.53
2023-01-31T04:20:49.545Z,4.57
2023-01-31T04:23:18.917Z,4.20
2023-01-31T04:25:46.594Z,4.23
2023-01-31T04:28:13.726Z,4.00
2023-01-31T04:30:40.953Z,3.43
2023-01-31T04:33:08.086Z,3.67
2023-01-31T04:35:35.311Z,4.13
2023-01-31T04:38:03.380Z,3.73
2023-01-31T04:40:30.547Z,4.27
2023-01-31T04:42:57.645Z,3.80
2023-01-31T04:45:30.308Z,2.87
2023-01-31T04:47:57.390Z,3.40
2023-01-31T04:50:24.626Z,3.37
2023-01-31T04:52:52.497Z,3.07
2023-01-31T04:55:19.908Z,3.43
2023-01-31T04:57:47.241Z,3.00
2023-01-31T05:00:16.322Z,3.77
2023-01-31T05:02:43.509Z,4.10
2023-01-31T05:05:12.903Z,3.87
2023-01-31T05:07:40.525Z,3.93
2023-01-31T05:10:09.538Z,4.03
2023-01-31T05:12:36.707Z,5.70
2023-01-31T05:15:12.428Z,3.70
2023-01-31T05:17:39.843Z,5.50
2023-01-31T05:20:07.659Z,5.93
2023-01-31T05:22:37.786Z,5.30
2023-01-31T05:25:05.883Z,6.20
2023-01-31T05:27:33.570Z,6.87
2023-01-31T05:30:01.212Z,5.67
2023-01-31T05:32:28.723Z,6.10
2023-01-31T05:34:55.764Z,5.70
2023-01-31T05:37:22.957Z,5.73
2023-01-31T05:39:50.272Z,5.13
2023-01-31T05:42:17.331Z,4.90
2023-01-31T05:44:44.421Z,4.70
2023-01-31T05:47:13.541Z,4.73
2023-01-31T05:49:40.589Z,5.10
2023-01-31T05:52:07.641Z,5.03
2023-01-31T05:54:34.770Z,4.50
2023-01-31T05:57:01.829Z,4.00
2023-01-31T05:59:31.277Z,4.37
2023-01-31T06:01:58.553Z,4.47
2023-01-31T06:04:25.621Z,3.47
2023-01-31T06:06:52.662Z,3.20
2023-01-31T06:09:19.673Z,3.60
2023-01-31T06:11:46.767Z,3.07
2023-01-31T06:14:13.769Z,3.23
2023-01-31T06:16:40.855Z,3.40
2023-01-31T06:19:07.960Z,3.60
2023-01-31T06:21:35.259Z,4.10
2023-01-31T06:24:02.517Z,3.97
2023-01-31T06:26:29.897Z,3.77
2023-01-31T06:28:57.115Z,5.10
2023-01-31T06:31:24.196Z,4.77
2023-01-31T06:33:51.522Z,5.50
2023-01-31T06:36:19.598Z,5.60
2023-01-31T06:38:51.263Z,5.60
2023-01-31T06:41:20.292Z,6.07
2023-01-31T06:43:47.556Z,6.13
2023-01-31T06:46:14.983Z,6.60
2023-01-31T06:48:42.357Z,6.70
2023-01-31T06:51:09.916Z,5.67
2023-01-31T06:53:37.010Z,6.30
2023-01-31T06:56:04.454Z,5.73
2023-01-31T06:58:33.800Z,5.63
2023-01-31T07:01:12.470Z,5.57
2023-01-31T07:03:40.144Z,5.80
2023-01-31T07:06:08.743Z,6.30
2023-01-31T07:08:37.073Z,6.10
2023-01-31T07:11:05.141Z,5.50
2023-01-31T07:13:33.061Z,5.27
2023-01-31T07:16:00.298Z,6.00
2023-01-31T07:18:27.764Z,5.07
2023-01-31T07:20:55.194Z,5.53
2023-01-31T07:23:22.396Z,5.27
2023-01-31T07:25:52.653Z,5.37
2023-01-31T07:28:19.907Z,5.70
2023-01-31T07:30:48.569Z,4.90
2023-01-31T07:33:15.872Z,5.20
2023-01-31T07:35:43.772Z,5.77
2023-01-31T07:38:11.530Z,5.70
2023-01-31T07:40:40.246Z,5.70
2023-01-31T07:43:07.366Z,5.70
2023-01-31T07:45:34.838Z,5.13
2023-01-31T07:48:02.676Z,5.80
2023-01-31T07:50:30.159Z,5.77
2023-01-31T07:52:59.307Z,5.20
2023-01-31T07:55:27.167Z,5.07
2023-01-31T07:57:54.274Z,4.00
2023-01-31T08:00:40.732Z,3.40
2023-01-31T08:03:34.097Z,4.63
2023-01-31T08:06:03.726Z,4.90
2023-01-31T08:08:31.034Z,4.50
2023-01-31T08:10:58.474Z,5.03
2023-01-31T08:13:27.071Z,4.63
2023-01-31T08:15:54.627Z,5.60
2023-01-31T08:18:21.776Z,4.47
2023-01-31T08:20:48.900Z,5.70
2023-01-31T08:23:16.321Z,4.73
2023-01-31T08:25:44.465Z,5.37
2023-01-31T08:28:11.842Z,5.93
2023-01-31T08:30:44.925Z,5.70
2023-01-31T08:33:15.491Z,5.57
2023-01-31T08:35:42.516Z,5.67
2023-01-31T08:38:16.310Z,5.23
2023-01-31T08:40:44.249Z,5.40
2023-01-31T08:43:11.683Z,5.60
2023-01-31T08:45:38.927Z,5.67
2023-01-31T08:48:06.612Z,6.20
2023-01-31T08:50:34.620Z,6.23
2023-01-31T08:53:04.128Z,5.93
2023-01-31T08:55:34.503Z,6.07
2023-01-31T08:58:02.782Z,6.60
2023-01-31T09:00:30.330Z,6.03
2023-01-31T09:02:59.592Z,5.77
2023-01-31T09:05:28.976Z,6.17
2023-01-31T09:07:56.293Z,5.47
2023-01-31T09:10:24.740Z,6.07
2023-01-31T09:12:52.004Z,6.53
2023-01-31T09:15:19.646Z,6.20
2023-01-31T09:17:46.927Z,6.73
2023-01-31T09:20:13.977Z,6.07
2023-01-31T09:22:41.193Z,6.33
2023-01-31T09:25:09.128Z,6.53
2023-01-31T09:27:38.070Z,7.03
2023-01-31T09:30:06.880Z,6.60
2023-01-31T09:32:34.147Z,6.60
2023-01-31T09:35:01.332Z,6.17
2023-01-31T09:37:32.126Z,6.20
2023-01-31T09:39:59.335Z,6.20
2023-01-31T09:42:42.754Z,6.17
2023-01-31T09:45:37.595Z,5.63
2023-01-31T09:48:07.208Z,6.03
2023-01-31T09:50:40.985Z,6.47
2023-01-31T09:53:13.849Z,6.43
2023-01-31T09:55:57.283Z,5.70
2023-01-31T09:58:37.750Z,6.73
2023-01-31T10:01:26.362Z,5.87
2023-01-31T10:04:14.572Z,6.40
2023-01-31T10:06:55.305Z,6.03
2023-01-31T10:09:32.053Z,6.50
2023-01-31T10:12:22.200Z,6.23
2023-01-31T10:14:54.231Z,6.13
2023-01-31T10:17:40.808Z,7.10
2023-01-31T10:20:22.657Z,7.03
2023-01-31T10:23:24.326Z,6.23
2023-01-31T10:25:58.310Z,5.97
2023-01-31T10:28:36.595Z,6.63
2023-01-31T10:31:21.752Z,5.57
2023-01-31T10:33:55.444Z,6.07
2023-01-31T10:36:54.100Z,4.90
2023-01-31T10:39:23.970Z,5.40
2023-01-31T10:42:06.951Z,5.10
2023-01-31T10:44:56.825Z,5.30
2023-01-31T10:47:34.644Z,5.27
2023-01-31T10:50:11.701Z,6.37
2023-01-31T10:52:48.929Z,5.30
2023-01-31T10:55:28.704Z,5.20
2023-01-31T10:57:57.485Z,4.90
2023-01-31T11:00:33.147Z,6.40
2023-01-31T11:03:00.408Z,5.10
2023-01-31T11:05:30.051Z,5.23
2023-01-31T11:08:01.393Z,4.97
2023-01-31T11:10:32.917Z,5.53
2023-01-31T11:13:04.671Z,5.50
2023-01-31T11:15:45.578Z,5.63
2023-01-31T11:18:24.712Z,5.13
2023-01-31T11:20:51.910Z,5.17
2023-01-31T11:23:25.304Z,5.23
2023-01-31T11:25:54.718Z,5.07
2023-01-31T11:28:29.895Z,5.20
2023-01-31T11:30:58.680Z,5.80
2023-01-31T11:33:45.964Z,4.60
2023-01-31T11:36:23.042Z,3.90
2023-01-31T11:38:51.507Z,5.13
2023-01-31T11:41:35.825Z,5.37
2023-01-31T11:44:09.229Z,4.20
2023-01-31T11:47:00.105Z,4.43
2023-01-31T11:49:42.406Z,4.37
2023-01-31T11:52:32.827Z,3.70
2023-01-31T11:55:08.940Z,3.60
2023-01-31T11:57:38.019Z,4.40
2023-01-31T12:00:27.880Z,4.10
2023-01-31T12:03:08.731Z,3.90
2023-01-31T12:05:38.287Z,3.90
2023-01-31T12:08:06.528Z,3.73
2023-01-31T12:10:41.798Z,3.60
2023-01-31T12:13:20.839Z,4.50
2023-01-31T12:16:04.592Z,4.07
2023-01-31T12:19:04.091Z,4.80
2023-01-31T12:21:52.293Z,4.63
2023-01-31T12:24:26.954Z,4.40
2023-01-31T12:27:00.683Z,4.30
2023-01-31T12:29:34.285Z,3.83
2023-01-31T12:32:29.336Z,3.80
2023-01-31T12:35:06.792Z,3.20
2023-01-31T12:37:42.515Z,3.63
2023-01-31T12:40:30.542Z,3.67
2023-01-31T12:43:05.265Z,4.03
2023-01-31T12:46:03.351Z,3.70
2023-01-31T12:48:57.635Z,3.97
2023-01-31T12:51:47.691Z,3.67
2023-01-31T12:54:27.224Z,3.90
2023-01-31T12:57:04.612Z,4.47
2023-01-31T13:00:03.891Z,3.97
2023-01-31T13:02:52.152Z,4.20
2023-01-31T13:05:39.211Z,3.77
2023-01-31T13:08:24.073Z,4.80
2023-01-31T13:10:57.307Z,4.60
2023-01-31T13:13:38.093Z,4.27
2023-01-31T13:16:21.449Z,4.90
2023-01-31T13:18:51.920Z,4.90
2023-01-31T13:21:23.063Z,4.73
2023-01-31T13:23:59.751Z,5.07
2023-01-31T13:26:35.352Z,5.03
2023-01-31T13:29:21.147Z,5.30
2023-01-31T13:32:23.559Z,4.60
2023-01-31T13:34:59.771Z,5.40
2023-01-31T13:37:30.676Z,6.10
2023-01-31T13:40:17.939Z,6.27
2023-01-31T13:42:45.207Z,6.53
2023-01-31T13:45:24.026Z,8.40
2023-01-31T13:48:01.033Z,6.70
2023-01-31T13:50:42.511Z,6.33
2023-01-31T13:53:33.431Z,6.67
2023-01-31T13:56:02.483Z,6.73
2023-01-31T13:58:35.287Z,6.27
2023-01-31T14:01:04.725Z,6.23
2023-01-31T14:03:31.923Z,6.60
2023-01-31T14:06:02.679Z,6.63
2023-01-31T14:08:59.131Z,7.17
2023-01-31T14:11:29.563Z,7.20
2023-01-31T14:14:30.375Z,7.33
2023-01-31T14:16:57.899Z,7.87
2023-01-31T14:19:24.894Z,6.70
2023-01-31T14:22:03.670Z,7.87
2023-01-31T14:24:56.760Z,8.03
2023-01-31T14:27:31.177Z,7.67
2023-01-31T14:30:07.585Z,7.97
2023-01-31T14:33:00.180Z,7.07
2023-01-31T14:35:51.648Z,7.10
2023-01-31T14:38:44.966Z,6.60
2023-01-31T14:41:33.875Z,7.43
2023-01-31T14:44:07.064Z,7.70
2023-01-31T14:46:53.115Z,7.40
2023-01-31T14:49:47.596Z,5.03
2023-01-31T14:52:29.117Z,7.47
2023-01-31T14:55:21.477Z,6.50
2023-01-31T14:57:53.248Z,6.17
2023-01-31T15:00:27.622Z,6.33
2023-01-31T15:03:22.478Z,5.80
2023-01-31T15:05:54.646Z,6.97
2023-01-31T15:08:21.720Z,6.37
2023-01-31T15:11:41.453Z,7.07
2023-01-31T15:14:43.171Z,6.80
2023-01-31T15:17:34.671Z,8.20
2023-01-31T15:20:28.566Z,7.87
2023-01-31T15:22:59.856Z,7.40
2023-01-31T15:25:39.864Z,8.87
2023-01-31T15:28:10.205Z,9.20
2023-01-31T15:30:40.750Z,9.13
2023-01-31T15:33:23.831Z,9.50
2023-01-31T15:36:09.833Z,8.43
2023-01-31T15:38:57.461Z,10.00
2023-01-31T15:41:46.673Z,10.57
2023-01-31T15:44:24.096Z,10.87
2023-01-31T15:46:56.768Z,11.20
2023-01-31T15:49:39.633Z,11.83
2023-01-31T15:52:22.957Z,11.97
2023-01-31T15:54:58.185Z,11.47
2023-01-31T15:57:35.336Z,11.27
2023-01-31T16:00:03.244Z,11.90
2023-01-31T16:02:35.107Z,12.00
2023-01-31T16:05:05.997Z,13.13
2023-01-31T16:07:33.192Z,12.80
2023-01-31T16:10:04.230Z,12.57
2023-01-31T16:12:33.273Z,13.07
2023-01-31T16:15:05.135Z,13.67
2023-01-31T16:17:33.088Z,13.63
2023-01-31T16:20:00.224Z,14.33
2023-01-31T16:22:30.692Z,13.77
2023-01-31T16:25:04.097Z,13.03
2023-01-31T16:27:38.308Z,15.47
2023-01-31T16:30:06.474Z,15.27
2023-01-31T16:32:38.084Z,15.57
2023-01-31T16:35:19.089Z,16.03
2023-01-31T16:37:47.079Z,15.47
2023-01-31T16:40:25.546Z,15.30
2023-01-31T16:43:10.610Z,13.97
2023-01-31T16:45:37.775Z,14.87
2023-01-31T16:48:17.203Z,14.10
2023-01-31T16:50:44.395Z,14.20
2023-01-31T16:53:32.498Z,14.33
2023-01-31T16:56:14.591Z,15.10
2023-01-31T16:58:46.270Z,15.57
2023-01-31T17:01:22.867Z,16.53
2023-01-31T17:04:11.334Z,15.77
2023-01-31T17:06:39.807Z,16.37
2023-01-31T17:09:09.516Z,16.73
2023-01-31T17:11:43.045Z,16.97
2023-01-31T17:14:11.045Z,16.67
2023-01-31T17:16:38.422Z,16.83
2023-01-31T17:19:05.959Z,17.33
2023-01-31T17:21:38.502Z,16.93
2023-01-31T17:24:06.091Z,17.03
2023-01-31T17:26:33.234Z,17.53
2023-01-31T17:29:02.440Z,16.17
2023-01-31T17:31:31.635Z,15.93
2023-01-31T17:34:01.072Z,16.67
2023-01-31T17:36:28.229Z,15.53
2023-01-31T17:38:55.801Z,16.93
2023-01-31T17:41:25.043Z,17.30
2023-01-31T17:43:52.441Z,16.40
2023-01-31T17:46:20.225Z,17.67
2023-01-31T17:48:47.341Z,18.67
2023-01-31T17:51:14.808Z,20.60
2023-01-31T17:53:49.888Z,19.00
2023-01-31T17:56:19.093Z,19.57
2023-01-31T17:58:46.456Z,19.33
2023-01-31T18:01:14.396Z,18.63
2023-01-31T18:03:42.221Z,19.17
2023-01-31T18:06:10.970Z,20.33
2023-01-31T18:08:38.584Z,20.90
2023-01-31T18:11:11.390Z,19.77
2023-01-31T18:13:39.133Z,18.97
2023-01-31T18:16:12.373Z,19.03
2023-01-31T18:18:43.974Z,18.90
2023-01-31T18:21:16.860Z,17.83
2023-01-31T18:23:48.768Z,18.70
2023-01-31T18:26:17.817Z,17.17
2023-01-31T18:28:46.459Z,17.20
2023-01-31T18:31:15.879Z,16.03
2023-01-31T18:33:45.481Z,15.03
2023-01-31T18:36:14.903Z,14.83
2023-01-31T18:38:43.750Z,13.17
2023-01-31T18:41:14.748Z,13.50
2023-01-31T18:43:43.431Z,13.20
2023-01-31T18:46:11.584Z,12.87
2023-01-31T18:48:40.619Z,13.00
2023-01-31T18:51:11.477Z,14.60
2023-01-31T18:53:41.204Z,12.07
2023-01-31T18:56:12.855Z,9.17
2023-01-31T18:58:41.617Z,11.60
2023-01-31T19:01:17.267Z,11.50
2023-01-31T19:03:46.584Z,11.93
2023-01-31T19:06:20.647Z,12.40
2023-01-31T19:08:49.417Z,12.17
2023-01-31T19:11:18.535Z,12.50
2023-01-31T19:13:46.383Z,13.17
2023-01-31T19:16:28.234Z,12.73
2023-01-31T19:18:56.884Z,11.83
2023-01-31T19:21:29.696Z,12.40
2023-01-31T19:24:02.004Z,12.10
2023-01-31T19:26:30.161Z,11.33
2023-01-31T19:28:58.816Z,12.20
2023-01-31T19:31:31.213Z,10.33
2023-01-31T19:34:04.671Z,11.17
2023-01-31T19:36:37.116Z,12.27
2023-01-31T19:39:07.925Z,10.87
2023-01-31T19:41:35.392Z,12.37
2023-01-31T19:44:03.358Z,11.53
2023-01-31T19:46:32.712Z,11.40
2023-01-31T19:49:00.538Z,10.60
2023-01-31T19:51:28.791Z,10.13
2023-01-31T19:54:02.628Z,10.17
2023-01-31T19:56:31.418Z,8.47
2023-01-31T19:59:00.035Z,9.13
2023-01-31T20:01:27.380Z,9.53
2023-01-31T20:03:54.779Z,7.47
2023-01-31T20:06:25.895Z,7.47
2023-01-31T20:08:55.506Z,8.13
2023-01-31T20:11:23.888Z,7.70
2023-01-31T20:13:52.197Z,7.43
2023-01-31T20:16:20.856Z,7.83
2023-01-31T20:18:50.212Z,8.37
2023-01-31T20:21:21.420Z,7.80
2023-01-31T20:23:49.928Z,7.17
2023-01-31T20:26:18.611Z,7.63
2023-01-31T20:28:46.038Z,7.20
2023-01-31T20:31:15.172Z,7.37
2023-01-31T20:33:42.840Z,6.17
2023-01-31T20:36:10.493Z,7.10
2023-01-31T20:38:39.090Z,6.90
2023-01-31T20:41:08.563Z,5.83
2023-01-31T20:43:37.053Z,6.70
2023-01-31T20:46:09.287Z,6.47
2023-01-31T20:48:36.689Z,6.23
2023-01-31T20:51:04.247Z,6.43
2023-01-31T20:53:32.100Z,6.67
2023-01-31T20:56:01.088Z,6.77
2023-01-31T20:58:30.552Z,6.43
2023-01-31T21:01:00.288Z,6.40
2023-01-31T21:03:28.148Z,6.20
2023-01-31T21:05:59.469Z,6.20
2023-01-31T21:08:27.653Z,4.50
2023-01-31T21:10:57.213Z,6.07
2023-01-31T21:13:27.961Z,6.67
2023-01-31T21:15:57.228Z,5.50
2023-01-31T21:18:27.418Z,6.70
2023-01-31T21:20:54.833Z,6.07
2023-01-31T21:23:21.951Z,5.50
2023-01-31T21:25:49.205Z,6.07
2023-01-31T21:28:16.541Z,6.77
2023-01-31T21:30:43.789Z,6.07
2023-01-31T21:33:10.990Z,6.00
2023-01-31T21:35:38.330Z,5.40
2023-01-31T21:38:05.416Z,5.60
2023-01-31T21:40:32.574Z,5.63
2023-01-31T21:42:59.623Z,5.53
2023-01-31T21:45:41.856Z,5.63
2023-01-31T21:48:29.378Z,5.33
2023-01-31T21:50:57.481Z,6.27
2023-01-31T21:53:26.391Z,6.73
2023-01-31T21:56:02.327Z,5.03
2023-01-31T21:58:29.966Z,6.80
2023-01-31T22:01:07.268Z,5.40
2023-01-31T22:03:35.893Z,7.30
2023-01-31T22:06:08.166Z,6.33
2023-01-31T22:08:36.115Z,6.17
2023-01-31T22:11:06.575Z,6.80
2023-01-31T22:13:34.813Z,7.17
2023-01-31T22:16:04.125Z,6.77
2023-01-31T22:18:32.270Z,7.00
2023-01-31T22:21:08.610Z,6.70
2023-01-31T22:23:38.127Z,6.60
2023-01-31T22:26:08.364Z,7.60
2023-01-31T22:28:36.573Z,7.43
2023-01-31T22:31:05.051Z,6.43
2023-01-31T22:33:34.316Z,7.40
2023-01-31T22:36:02.378Z,7.13
2023-01-31T22:38:29.464Z,7.40
2023-01-31T22:40:58.659Z,7.47
2023-01-31T22:43:29.572Z,5.57
2023-01-31T22:45:58.729Z,6.17
2023-01-31T22:48:27.146Z,6.30
2023-01-31T22:50:57.271Z,5.17
2023-01-31T22:53:31.023Z,6.27
2023-01-31T22:56:02.890Z,7.10
2023-01-31T22:58:31.288Z,6.80
2023-01-31T23:00:58.581Z,7.73
2023-01-31T23:03:26.881Z,6.73
2023-01-31T23:05:53.890Z,8.10
2023-01-31T23:08:21.051Z,8.00
2023-01-31T23:10:48.121Z,5.63
2023-01-31T23:13:16.457Z,9.50
2023-01-31T23:15:43.776Z,9.30
2023-01-31T23:18:16.220Z,8.30
2023-01-31T23:20:43.389Z,9.30
2023-01-31T23:23:10.446Z,9.17
2023-01-31T23:25:38.685Z,9.37
2023-01-31T23:28:06.849Z,7.43
2023-01-31T23:30:34.427Z,9.00
2023-01-31T23:33:01.817Z,8.17
2023-01-31T23:35:29.284Z,9.20
2023-01-31T23:37:57.132Z,7.70
2023-01-31T23:40:24.268Z,8.17
2023-01-31T23:42:51.511Z,8.33
2023-01-31T23:45:19.742Z,7.50
2023-01-31T23:47:47.115Z,7.53
2023-01-31T23:50:14.193Z,7.53
2023-01-31T23:52:41.319Z,8.63
2023-01-31T23:55:08.893Z,8.53
2023-01-31T23:57:36.141Z,7.83
